Time;durP1;ratioP1;P1;durP2;ratioP2;P2;SDS_P1;SDS_P2;PMS_P1;PMS_P2;Temp;Humidity;BMP_temperature;BMP_pressure;BME280_temperature;BME280_humidity;BME280_pressure;Samples;Min_cycle;Max_cycle;Signal;HPM_P1;HPM_P2
2020/12/16 00:00:08;;;;;;;25.08;7.15;;;;;;;2.87;79.06;94141.06;4975407;28;20039;-60
2020/12/16 00:02:34;;;;;;;35.88;5.97;;;;;;;2.75;78.18;94142.16;4972475;28;20066;-61
2020/12/16 00:04:59;;;;;;;27.50;5.30;;;;;;;2.70;77.40;94145.59;4975715;28;20038;-61
2020/12/16 00:07:25;;;;;;;36.30;5.40;;;;;;;2.55;77.31;94144.97;4966882;28;20066;-61
2020/12/16 00:09:50;;;;;;;20.00;5.03;;;;;;;2.64;77.84;94152.97;4981967;28;20039;-61
2020/12/16 00:12:15;;;;;;;20.98;5.80;;;;;;;2.58;78.23;94145.97;4976165;28;20458;-61
2020/12/16 00:14:43;;;;;;;21.70;4.32;;;;;;;2.48;78.36;94137.19;4972311;28;20034;-60
2020/12/16 00:17:09;;;;;;;59.45;5.90;;;;;;;2.27;78.59;94147.34;4977914;28;20030;-60
2020/12/16 00:19:34;;;;;;;19.38;4.05;;;;;;;2.21;79.45;94148.53;4978333;28;20034;-61
2020/12/16 00:22:00;;;;;;;30.85;3.60;;;;;;;2.29;79.32;94142.22;4968725;28;20034;-60
2020/12/16 00:24:26;;;;;;;30.48;4.03;;;;;;;2.06;79.43;94140.44;4979495;28;20066;-61
2020/12/16 00:26:52;;;;;;;25.38;4.05;;;;;;;1.67;80.67;94141.19;4970949;28;20048;-60
2020/12/16 00:29:17;;;;;;;16.88;3.22;;;;;;;1.63;80.91;94146.03;4981345;28;20027;-61
2020/12/16 00:31:42;;;;;;;11.60;3.13;;;;;;;1.62;81.47;94142.59;4975756;28;20483;-61
2020/12/16 00:34:08;;;;;;;11.60;3.75;;;;;;;1.37;82.14;94141.25;4979145;28;20034;-61
2020/12/16 00:36:37;;;;;;;22.08;3.03;;;;;;;1.39;82.13;94141.50;4978933;28;20046;-61
2020/12/16 00:39:07;;;;;;;32.40;4.30;;;;;;;1.50;82.02;94138.19;4980223;28;20072;-61
2020/12/16 00:41:33;;;;;;;11.55;3.80;;;;;;;1.42;82.73;94137.09;4990647;28;20045;-60
2020/12/16 00:43:59;;;;;;;10.77;2.83;;;;;;;1.47;82.15;94134.44;4987355;28;20042;-60
2020/12/16 00:46:25;;;;;;;25.35;4.15;;;;;;;1.77;81.14;94134.38;4982996;28;20041;-60
2020/12/16 00:48:50;;;;;;;7.75;4.13;;;;;;;1.90;80.96;94130.09;4975944;28;20043;-60
2020/12/16 00:51:16;;;;;;;10.88;3.90;;;;;;;2.02;80.03;94130.97;4972994;28;20535;-61
2020/12/16 00:53:41;;;;;;;10.88;3.65;;;;;;;2.09;79.69;94130.56;4970380;28;20109;-61
2020/12/16 00:56:06;;;;;;;15.60;2.80;;;;;;;2.12;79.76;94127.63;4976896;28;20517;-60
2020/12/16 00:58:32;;;;;;;27.65;6.55;;;;;;;2.04;79.73;94125.78;4986664;28;20042;-61
2020/12/16 01:00:57;;;;;;;7.35;3.17;;;;;;;2.15;79.37;94125.91;4976632;28;20395;-60
2020/12/16 01:03:23;;;;;;;10.55;3.42;;;;;;;2.12;79.42;94127.63;4970677;28;20042;-61
2020/12/16 01:05:48;;;;;;;8.95;3.20;;;;;;;2.14;80.13;94119.00;4977524;28;20577;-60
2020/12/16 01:08:13;;;;;;;15.07;2.97;;;;;;;2.20;79.74;94114.34;4988931;28;20118;-60
2020/12/16 01:10:39;;;;;;;13.57;3.03;;;;;;;2.28;79.87;94121.63;4981909;28;20039;-61
2020/12/16 01:13:04;;;;;;;6.82;3.25;;;;;;;2.36;79.26;94126.66;4970287;28;20026;-61
2020/12/16 01:15:30;;;;;;;18.50;4.05;;;;;;;2.41;79.25;94125.97;4970218;28;20093;-61
2020/12/16 01:17:55;;;;;;;7.38;3.83;;;;;;;2.52;79.38;94120.63;4972009;28;20089;-61
2020/12/16 01:20:20;;;;;;;12.63;4.10;;;;;;;2.51;78.81;94127.31;4969743;28;20077;-61
2020/12/16 01:22:48;;;;;;;7.15;3.30;;;;;;;2.50;78.96;94117.63;4968552;28;20042;-61
2020/12/16 01:25:16;;;;;;;25.13;3.42;;;;;;;2.49;77.55;94116.16;4979128;28;20041;-60
2020/12/16 01:27:41;;;;;;;14.85;3.35;;;;;;;2.43;77.59;94118.03;4983670;28;20031;-61
2020/12/16 01:30:08;;;;;;;11.93;3.20;;;;;;;2.49;78.59;94114.16;4977527;28;20045;-61
2020/12/16 01:32:36;;;;;;;13.07;4.38;;;;;;;2.54;77.77;94110.75;4980327;28;20052;-61
2020/12/16 01:35:06;;;;;;;9.52;5.20;;;;;;;2.52;77.73;94110.47;4985065;28;20108;-61
2020/12/16 01:37:31;;;;;;;9.90;4.38;;;;;;;2.53;78.20;94111.22;4973107;28;20038;-61
2020/12/16 01:39:56;;;;;;;7.80;4.55;;;;;;;2.54;77.70;94113.47;4981212;28;20027;-61
2020/12/16 01:42:22;;;;;;;20.90;4.50;;;;;;;2.55;78.01;94101.34;4973985;28;20050;-61
2020/12/16 01:44:47;;;;;;;5.60;3.15;;;;;;;2.48;77.31;94109.94;4989888;28;20113;-61
2020/12/16 01:47:13;;;;;;;10.02;3.78;;;;;;;2.42;78.02;94100.97;4972480;28;20037;-61
2020/12/16 01:49:38;;;;;;;16.50;7.53;;;;;;;2.46;77.90;94098.03;4971430;28;20046;-61
2020/12/16 01:52:06;;;;;;;6.85;4.45;;;;;;;2.49;76.90;94105.25;4969503;28;20058;-61
2020/12/16 01:54:36;;;;;;;4.65;3.60;;;;;;;2.40;77.14;94097.97;4968465;28;20030;-61
2020/12/16 01:57:05;;;;;;;25.10;8.00;;;;;;;2.26;77.73;94099.56;4985764;28;20051;-61
2020/12/16 01:59:35;;;;;;;26.05;11.85;;;;;;;2.36;78.01;94094.69;4981994;28;20026;-61
2020/12/16 02:02:02;;;;;;;25.67;8.45;;;;;;;2.27;77.97;94083.97;4969221;28;20030;-61
2020/12/16 02:04:33;;;;;;;20.35;9.70;;;;;;;2.34;78.18;94096.44;4981889;28;20433;-61
2020/12/16 02:07:00;;;;;;;28.50;10.82;;;;;;;2.46;77.26;94096.06;4980311;28;20030;-61
2020/12/16 02:09:26;;;;;;;7.28;3.63;;;;;;;2.45;76.83;94094.53;4989618;28;20093;-61
2020/12/16 02:11:51;;;;;;;26.95;6.13;;;;;;;2.36;76.84;94097.41;4971908;28;20027;-61
2020/12/16 02:14:16;;;;;;;7.70;3.63;;;;;;;2.26;76.60;94096.84;4968917;28;20125;-61
2020/12/16 02:16:42;;;;;;;7.82;2.70;;;;;;;2.19;76.85;94091.03;4961721;28;20729;-61
2020/12/16 02:19:09;;;;;;;7.80;2.85;;;;;;;2.26;77.20;94090.63;4968684;28;20033;-61
2020/12/16 02:21:35;;;;;;;8.85;3.80;;;;;;;2.09;78.14;94092.44;4959281;28;20030;-61
2020/12/16 02:24:05;;;;;;;10.75;4.88;;;;;;;2.19;77.09;94099.22;4968763;28;20085;-61
2020/12/16 02:26:34;;;;;;;11.43;4.47;;;;;;;2.14;77.36;94097.19;4972579;28;20482;-60
2020/12/16 02:29:00;;;;;;;15.18;5.72;;;;;;;2.20;77.48;94096.03;4969030;28;20041;-61
2020/12/16 02:31:28;;;;;;;15.35;7.57;;;;;;;2.27;77.71;94094.88;4971314;28;20047;-61
2020/12/16 02:33:53;;;;;;;10.27;3.45;;;;;;;2.14;77.54;94097.19;4973763;28;20029;-61
2020/12/16 02:36:19;;;;;;;13.48;5.57;;;;;;;2.18;78.05;94098.50;4968910;28;20034;-61
2020/12/16 02:38:46;;;;;;;14.48;7.07;;;;;;;2.14;79.00;94100.66;4968683;28;20511;-61
2020/12/16 02:41:11;;;;;;;8.30;5.13;;;;;;;2.18;78.09;94100.47;4968564;28;20031;-61
2020/12/16 02:43:36;;;;;;;13.75;6.55;;;;;;;2.07;78.98;94103.06;4982495;28;20038;-61
2020/12/16 02:46:02;;;;;;;6.45;3.90;;;;;;;2.17;78.34;94104.41;4968116;28;20034;-61
2020/12/16 02:48:27;;;;;;;12.85;6.53;;;;;;;2.14;78.72;94097.94;4973071;28;21714;-61
2020/12/16 02:50:53;;;;;;;20.70;10.15;;;;;;;2.23;78.53;94094.34;4968823;28;21088;-61
2020/12/16 02:53:19;;;;;;;8.75;3.50;;;;;;;2.26;78.18;94099.56;4975726;28;20085;-61
2020/12/16 02:55:44;;;;;;;5.28;2.72;;;;;;;2.13;76.89;94107.34;4974157;28;20110;-61
2020/12/16 02:58:10;;;;;;;6.53;3.08;;;;;;;2.06;78.08;94104.28;4968074;28;20034;-61
2020/12/16 03:00:35;;;;;;;7.40;3.70;;;;;;;2.15;77.67;94104.13;4968227;28;20045;-61
2020/12/16 03:03:01;;;;;;;7.70;4.38;;;;;;;2.17;77.68;94105.16;4970311;28;20038;-61
2020/12/16 03:05:26;;;;;;;6.25;2.42;;;;;;;2.23;76.86;94110.69;4969737;28;20034;-61
2020/12/16 03:07:51;;;;;;;5.93;2.75;;;;;;;2.05;77.28;94105.50;4972344;28;20041;-61
2020/12/16 03:10:17;;;;;;;4.35;2.67;;;;;;;2.13;76.87;94109.31;4979813;28;20148;-61
2020/12/16 03:12:42;;;;;;;4.80;2.22;;;;;;;2.08;76.67;94116.19;4971579;28;20053;-60
2020/12/16 03:15:07;;;;;;;5.95;2.28;;;;;;;2.09;77.29;94122.38;4971721;28;20034;-60
2020/12/16 03:17:33;;;;;;;11.05;3.65;;;;;;;2.14;76.87;94114.28;4971194;28;20043;-60
2020/12/16 03:19:58;;;;;;;16.65;4.57;;;;;;;2.19;76.54;94110.88;4977101;28;20073;-60
2020/12/16 03:22:24;;;;;;;12.55;4.80;;;;;;;2.23;77.09;94116.13;4968032;28;20038;-60
2020/12/16 03:24:49;;;;;;;12.35;4.53;;;;;;;2.27;76.78;94113.94;4969463;28;20027;-60
2020/12/16 03:27:14;;;;;;;15.82;5.80;;;;;;;2.25;77.15;94113.69;4969882;28;20038;-60
2020/12/16 03:29:40;;;;;;;13.52;5.10;;;;;;;2.20;77.31;94114.34;4973707;28;20035;-61
2020/12/16 03:32:05;;;;;;;16.45;6.68;;;;;;;2.20;78.03;94115.09;4975963;28;20033;-61
2020/12/16 03:34:31;;;;;;;24.05;6.47;;;;;;;2.17;77.79;94112.56;4969399;28;20386;-61
2020/12/16 03:36:56;;;;;;;15.07;7.70;;;;;;;2.19;78.25;94112.84;4974700;28;20038;-61
2020/12/16 03:39:21;;;;;;;11.48;5.65;;;;;;;2.28;78.35;94116.19;4971574;28;20380;-61
2020/12/16 03:41:50;;;;;;;15.07;6.78;;;;;;;2.24;78.52;94110.19;4971211;28;20034;-61
2020/12/16 03:44:15;;;;;;;18.73;6.07;;;;;;;2.35;78.07;94123.19;4969431;28;20026;-61
2020/12/16 03:46:41;;;;;;;18.05;5.70;;;;;;;2.47;77.63;94119.34;4987467;28;20096;-61
2020/12/16 03:49:06;;;;;;;21.95;8.40;;;;;;;2.46;77.94;94117.09;4987189;28;20034;-61
2020/12/16 03:51:31;;;;;;;22.42;5.80;;;;;;;2.44;77.43;94114.09;4968431;28;20136;-61
2020/12/16 03:53:57;;;;;;;19.00;5.32;;;;;;;2.40;77.06;94124.47;4976016;28;20046;-61
2020/12/16 03:56:22;;;;;;;13.93;3.42;;;;;;;2.45;77.54;94121.78;4979339;28;20122;-61
2020/12/16 03:58:48;;;;;;;7.57;4.13;;;;;;;2.34;77.55;94121.66;4987792;28;20030;-61
2020/12/16 04:01:15;;;;;;;8.63;3.75;;;;;;;2.42;77.50;94119.28;4977648;28;20034;-61
2020/12/16 04:03:41;;;;;;;10.18;4.47;;;;;;;2.44;77.87;94120.31;4966487;28;20043;-61
2020/12/16 04:06:10;;;;;;;12.90;5.35;;;;;;;2.50;78.00;94120.34;4968566;28;20035;-61
2020/12/16 04:08:36;;;;;;;16.88;6.20;;;;;;;2.50;78.33;94121.13;4970877;28;20035;-61
2020/12/16 04:11:03;;;;;;;15.70;6.07;;;;;;;2.54;78.53;94124.38;4981534;28;20041;-61
2020/12/16 04:13:28;;;;;;;10.05;4.78;;;;;;;2.59;78.05;94122.94;4975161;28;20034;-61
2020/12/16 04:15:54;;;;;;;13.23;5.22;;;;;;;2.65;77.89;94124.47;4975746;28;20678;-61
2020/12/16 04:18:19;;;;;;;17.52;6.93;;;;;;;2.52;78.42;94126.81;4979678;28;20150;-61
2020/12/16 04:20:45;;;;;;;14.63;8.07;;;;;;;2.64;78.25;94122.25;4986441;28;20031;-61
2020/12/16 04:23:10;;;;;;;26.63;9.60;;;;;;;2.72;77.97;94128.75;4974060;28;20045;-61
2020/12/16 04:25:36;;;;;;;23.17;8.52;;;;;;;2.63;78.67;94135.13;4968352;28;20407;-60
2020/12/16 04:28:01;;;;;;;20.33;7.82;;;;;;;2.61;78.33;94140.31;4974311;28;20026;-61
2020/12/16 04:30:28;;;;;;;18.27;6.95;;;;;;;2.64;78.46;94138.59;4972043;28;20038;-61
2020/12/16 04:32:57;;;;;;;16.55;6.57;;;;;;;2.73;78.31;94146.63;4969030;28;20035;-61
2020/12/16 04:35:24;;;;;;;12.48;6.22;;;;;;;2.78;78.07;94143.19;4965169;28;20035;-61
2020/12/16 04:37:50;;;;;;;16.52;6.03;;;;;;;2.77;77.28;94149.88;4980077;28;20038;-61
2020/12/16 04:40:16;;;;;;;14.20;6.43;;;;;;;2.75;77.28;94152.34;4981673;28;20105;-61
2020/12/16 04:42:41;;;;;;;16.02;6.65;;;;;;;2.72;77.31;94161.47;4982650;28;20114;-61
2020/12/16 04:45:10;;;;;;;19.52;6.38;;;;;;;2.59;78.04;94155.66;4967982;28;20034;-61
2020/12/16 04:47:36;;;;;;;11.13;6.15;;;;;;;2.57;78.47;94155.38;4980758;28;20030;-61
2020/12/16 04:50:05;;;;;;;18.15;6.07;;;;;;;2.54;78.41;94159.06;4976385;28;20045;-61
2020/12/16 04:52:31;;;;;;;;;;;;;;;2.58;78.87;94165.78;4980779;28;20506;-61
2020/12/16 04:54:56;;;;;;;16.60;5.03;;;;;;;2.39;79.28;94150.97;4969474;28;19925;-61
2020/12/16 04:57:24;;;;;;;15.73;4.68;;;;;;;2.56;79.09;94165.53;4971710;28;20034;-61
2020/12/16 04:59:55;;;;;;;19.00;5.47;;;;;;;2.56;79.88;94168.25;4971570;28;21691;-61
2020/12/16 05:02:21;;;;;;;13.18;5.18;;;;;;;2.67;79.29;94168.38;4966076;28;20031;-61
2020/12/16 05:04:46;;;;;;;18.70;7.72;;;;;;;2.67;79.92;94171.09;4981230;28;20113;-61
2020/12/16 05:07:29;;;;;;;18.85;7.35;;;;;;;2.68;79.70;94164.44;4965649;28;20058;-60
2020/12/16 05:09:55;;;;;;;25.50;9.32;;;;;;;2.84;79.34;94180.19;4976932;28;20027;-61
2020/12/16 05:12:21;;;;;;;28.90;12.30;;;;;;;2.79;79.83;94172.72;4973813;28;20085;-61
2020/12/16 05:14:46;;;;;;;33.20;12.10;;;;;;;2.97;79.04;94174.34;4971891;28;20037;-60
2020/12/16 05:17:11;;;;;;;29.13;12.82;;;;;;;3.02;78.51;94170.94;4976970;28;20062;-60
2020/12/16 05:19:46;;;;;;;34.33;14.48;;;;;;;2.92;79.16;94175.06;4969023;28;20031;-61
2020/12/16 05:22:14;;;;;;;63.97;18.95;;;;;;;2.91;78.95;94171.59;4971214;28;20463;-61
2020/12/16 05:24:39;;;;;;;31.27;13.60;;;;;;;2.80;79.46;94168.75;4975179;28;20034;-61
2020/12/16 05:27:08;;;;;;;49.85;12.48;;;;;;;3.02;79.02;94179.13;4969304;28;20043;-61
2020/12/16 05:29:34;;;;;;;31.00;13.65;;;;;;;2.93;78.89;94171.09;4976848;28;20040;-61
2020/12/16 05:32:20;;;;;;;108.70;40.47;;;;;;;3.05;78.75;94189.09;4970973;28;20070;-61
2020/12/16 05:34:46;;;;;;;59.08;23.88;;;;;;;3.08;78.50;94179.91;4968953;28;20053;-61
2020/12/16 05:37:29;;;;;;;42.78;16.40;;;;;;;2.82;78.20;94176.44;4970290;28;20031;-60
2020/12/16 05:40:03;;;;;;;45.05;16.42;;;;;;;2.75;78.53;94176.88;4976164;28;20510;-60
2020/12/16 05:42:29;;;;;;;71.72;28.50;;;;;;;2.62;79.38;94184.69;4974063;28;20042;-60
2020/12/16 05:44:59;;;;;;;59.38;25.77;;;;;;;2.71;79.35;94182.53;4957938;28;20037;-60
2020/12/16 05:47:25;;;;;;;68.97;26.33;;;;;;;2.87;79.13;94184.69;4976051;28;20478;-60
2020/12/16 05:49:51;;;;;;;52.83;24.00;;;;;;;2.82;79.25;94184.63;4970240;28;20046;-60
2020/12/16 05:52:16;;;;;;;75.75;25.17;;;;;;;2.94;78.90;94181.53;4968258;28;20074;-61
2020/12/16 05:54:48;;;;;;;63.33;26.80;;;;;;;2.85;78.96;94184.44;4979790;28;20058;-60
2020/12/16 05:57:21;;;;;;;71.63;29.85;;;;;;;2.82;79.54;94188.09;4969611;28;20034;-60
2020/12/16 06:00:02;;;;;;;83.13;36.00;;;;;;;2.97;79.97;94196.19;4974728;28;20046;-60
2020/12/16 06:02:37;;;;;;;79.22;30.98;;;;;;;3.07;79.55;94198.25;4964823;28;20040;-61
2020/12/16 06:05:13;;;;;;;71.88;29.42;;;;;;;3.15;79.69;94203.28;4966284;28;20039;-61
2020/12/16 06:07:46;;;;;;;74.55;33.75;;;;;;;3.10;79.14;94206.72;4972168;28;20518;-60
2020/12/16 06:10:12;;;;;;;81.07;34.92;;;;;;;3.15;79.67;94216.94;4961757;28;20030;-61
2020/12/16 06:12:40;;;;;;;104.45;42.83;;;;;;;3.17;78.93;94219.94;4977629;28;20130;-61
2020/12/16 06:15:07;;;;;;;91.38;40.63;;;;;;;3.17;78.27;94217.19;4970650;28;20034;-60
2020/12/16 06:17:44;;;;;;;111.97;47.95;;;;;;;3.09;78.49;94214.16;4969743;28;20118;-62
2020/12/16 06:20:14;;;;;;;92.22;39.85;;;;;;;3.26;78.35;94231.44;4959150;28;20451;-61
2020/12/16 06:22:42;;;;;;;82.55;34.40;;;;;;;3.23;78.54;94237.84;4962176;28;20029;-60
2020/12/16 06:25:09;;;;;;;79.05;31.75;;;;;;;3.06;78.55;94234.22;4965770;28;20045;-61
2020/12/16 06:27:44;;;;;;;56.67;23.90;;;;;;;2.93;79.37;94237.31;4965222;28;20031;-61
2020/12/16 06:30:14;;;;;;;48.83;19.05;;;;;;;2.78;80.02;94231.19;4973513;28;20053;-61
2020/12/16 06:32:42;;;;;;;44.47;19.10;;;;;;;2.68;80.89;94234.56;4961163;28;20130;-61
2020/12/16 06:35:15;;;;;;;40.50;14.73;;;;;;;2.75;81.40;94237.59;4970690;28;20026;-61
2020/12/16 06:37:41;;;;;;;28.52;12.55;;;;;;;3.01;80.88;94241.09;4966005;28;20113;-61
2020/12/16 06:40:06;;;;;;;33.63;12.70;;;;;;;3.21;80.67;94245.75;4962608;28;20559;-62
2020/12/16 06:42:32;;;;;;;33.45;15.43;;;;;;;3.20;79.77;94238.06;4951926;28;20042;-62
2020/12/16 06:45:15;;;;;;;26.70;13.52;;;;;;;3.38;80.05;94248.66;4957627;28;20978;-61
2020/12/16 06:47:41;;;;;;;25.90;12.18;;;;;;;3.40;80.06;94244.19;4969116;28;20061;-60
2020/12/16 06:50:20;;;;;;;18.85;10.23;;;;;;;3.40;79.99;94246.22;4964818;28;20058;-61
2020/12/16 06:52:46;;;;;;;15.75;8.48;;;;;;;3.50;80.51;94245.53;4966805;28;20133;-61
2020/12/16 06:55:13;;;;;;;23.60;13.25;;;;;;;3.59;80.64;94233.72;4969226;28;20046;-61
2020/12/16 06:57:49;;;;;;;40.92;19.23;;;;;;;3.77;79.82;94236.81;4969851;28;20033;-61
2020/12/16 07:00:22;;;;;;;22.83;12.52;;;;;;;3.89;79.30;94239.63;4967221;28;20039;-61
2020/12/16 07:02:48;;;;;;;25.63;15.10;;;;;;;3.83;79.63;94234.88;4962922;28;20476;-62
2020/12/16 07:05:35;;;;;;;30.33;17.95;;;;;;;3.92;80.21;94253.06;4967527;28;20042;-62
2020/12/16 07:08:01;;;;;;;66.05;25.88;;;;;;;3.88;80.07;94244.34;4964414;28;20031;-62
2020/12/16 07:10:33;;;;;;;92.60;37.63;;;;;;;3.92;80.11;94250.31;4962891;28;20035;-62
2020/12/16 07:13:20;;;;;;;94.35;39.08;;;;;;;4.10;79.94;94252.69;4965212;28;20495;-62
2020/12/16 07:15:56;;;;;;;96.80;40.03;;;;;;;4.15;79.21;94249.25;4968772;28;20038;-63
2020/12/16 07:18:21;;;;;;;103.13;43.22;;;;;;;4.17;79.30;94252.25;4969218;28;20088;-63
2020/12/16 07:20:47;;;;;;;122.88;53.53;;;;;;;4.19;79.16;94257.97;4969526;28;20034;-64
2020/12/16 07:23:14;;;;;;;120.72;52.38;;;;;;;4.29;79.30;94266.72;4974120;28;20065;-64
2020/12/16 07:25:43;;;;;;;83.40;39.33;;;;;;;4.40;79.17;94258.56;4969457;28;20026;-62
2020/12/16 07:28:10;;;;;;;59.90;30.33;;;;;;;4.43;79.09;94261.09;4968344;28;20049;-62
2020/12/16 07:30:51;;;;;;;36.78;19.63;;;;;;;4.39;78.95;94246.91;4959068;28;20097;-62
2020/12/16 07:33:17;;;;;;;25.55;13.02;;;;;;;4.46;78.89;94259.38;4965244;28;20042;-63
2020/12/16 07:35:47;;;;;;;9.88;7.53;;;;;;;4.42;79.45;94259.59;4974399;28;20041;-61
2020/12/16 07:38:13;;;;;;;9.02;5.80;;;;;;;4.41;78.86;94260.84;4978268;28;20038;-62
2020/12/16 07:40:39;;;;;;;23.95;11.35;;;;;;;4.31;80.07;94264.25;4972056;28;20378;-62
2020/12/16 07:43:08;;;;;;;9.52;6.38;;;;;;;4.36;79.67;94264.28;4969668;28;20105;-61
2020/12/16 07:45:33;;;;;;;11.57;7.90;;;;;;;4.36;78.78;94263.53;4967162;28;20113;-62
2020/12/16 07:47:59;;;;;;;8.13;5.82;;;;;;;4.25;78.94;94263.47;4971097;28;20432;-60
2020/12/16 07:50:24;;;;;;;5.18;3.47;;;;;;;4.18;79.76;94264.66;4963062;28;20491;-60
2020/12/16 07:52:52;;;;;;;7.25;4.13;;;;;;;4.38;78.97;94270.00;4972208;28;20054;-60
2020/12/16 07:55:25;;;;;;;6.90;4.38;;;;;;;4.18;79.32;94263.94;4965157;28;20507;-60
2020/12/16 07:57:50;;;;;;;5.15;3.65;;;;;;;4.29;79.39;94267.47;4962452;28;20042;-61
2020/12/16 08:00:22;;;;;;;6.88;3.95;;;;;;;4.40;79.65;94264.78;4973071;28;20041;-61
2020/12/16 08:02:52;;;;;;;5.50;3.83;;;;;;;4.51;79.58;94264.09;4967821;28;20038;-60
2020/12/16 08:05:17;;;;;;;8.57;4.80;;;;;;;4.57;79.90;94271.09;4965607;28;20375;-62
2020/12/16 08:07:43;;;;;;;7.20;4.45;;;;;;;4.57;79.77;94267.59;4966939;28;20421;-62
2020/12/16 08:10:09;;;;;;;5.90;3.67;;;;;;;4.62;78.67;94266.88;4964747;28;20034;-62
2020/12/16 08:12:40;;;;;;;5.40;4.10;;;;;;;4.57;78.85;94268.34;4970283;28;20038;-62
2020/12/16 08:15:12;;;;;;;6.38;3.05;;;;;;;4.67;78.77;94265.44;4961016;28;20034;-62
2020/12/16 08:17:42;;;;;;;4.30;3.25;;;;;;;4.75;78.62;94260.97;4966915;28;20124;-62
2020/12/16 08:20:15;;;;;;;5.25;3.70;;;;;;;4.84;78.20;94247.84;4964568;28;20517;-62
2020/12/16 08:22:42;;;;;;;8.15;4.95;;;;;;;4.77;78.51;94263.97;4973643;28;20713;-62
2020/12/16 08:25:10;;;;;;;6.20;4.22;;;;;;;4.76;78.60;94257.78;4968183;28;20157;-62
2020/12/16 08:27:44;;;;;;;5.13;4.60;;;;;;;4.87;78.70;94268.00;4964927;28;20038;-62
2020/12/16 08:30:11;;;;;;;7.18;4.90;;;;;;;5.02;78.61;94269.31;4965544;28;20290;-62
2020/12/16 08:32:43;;;;;;;5.70;4.15;;;;;;;4.96;77.79;94265.06;4964907;28;20114;-62
2020/12/16 08:35:17;;;;;;;5.05;3.83;;;;;;;4.97;78.38;94263.81;4962794;28;20027;-61
2020/12/16 08:37:46;;;;;;;5.60;3.72;;;;;;;5.03;78.16;94268.06;4965861;28;20049;-62
2020/12/16 08:40:13;;;;;;;5.00;3.42;;;;;;;5.14;77.34;94268.09;4963018;28;20035;-61
2020/12/16 08:42:38;;;;;;;5.95;3.88;;;;;;;5.16;76.39;94268.34;4966899;28;20491;-62
2020/12/16 08:45:08;;;;;;;4.95;3.55;;;;;;;5.10;76.48;94261.34;4974129;28;20110;-62
2020/12/16 08:47:36;;;;;;;5.28;3.22;;;;;;;5.16;75.85;94262.09;4970618;28;20031;-62
2020/12/16 08:50:03;;;;;;;4.78;3.45;;;;;;;5.02;76.35;94260.34;4972983;28;20049;-62
2020/12/16 08:52:38;;;;;;;6.18;3.75;;;;;;;4.75;76.08;94256.25;4968516;28;20045;-62
2020/12/16 08:55:18;;;;;;;5.45;3.47;;;;;;;4.76;76.38;94255.03;4968192;28;20084;-62
2020/12/16 08:57:56;;;;;;;6.35;5.38;;;;;;;4.53;77.50;94251.44;4967324;28;21438;-61
2020/12/16 09:00:27;;;;;;;5.35;3.30;;;;;;;4.52;77.69;94239.03;4972055;28;20101;-61
2020/12/16 09:03:07;;;;;;;6.60;4.03;;;;;;;4.37;78.32;94252.13;4981694;28;20042;-62
2020/12/16 09:05:35;;;;;;;6.45;4.72;;;;;;;4.31;78.52;94245.13;4967032;28;20066;-62
2020/12/16 09:08:18;;;;;;;4.53;3.55;;;;;;;4.55;77.56;94243.50;4969612;28;20035;-62
2020/12/16 09:10:44;;;;;;;6.15;3.35;;;;;;;4.55;78.34;94238.03;4964400;28;20026;-61
2020/12/16 09:13:15;;;;;;;5.07;3.42;;;;;;;4.69;77.84;94232.84;4969918;28;20277;-61
2020/12/16 09:15:46;;;;;;;6.30;3.67;;;;;;;4.75;77.09;94239.09;4967432;28;20030;-62
2020/12/16 09:18:12;;;;;;;5.07;3.45;;;;;;;4.61;77.53;94236.06;4971886;28;20188;-61
2020/12/16 09:20:38;;;;;;;4.40;3.40;;;;;;;4.57;77.86;94234.78;4978057;28;20041;-62
2020/12/16 09:23:04;;;;;;;5.50;3.42;;;;;;;4.50;77.86;94235.28;4982909;28;20030;-61
2020/12/16 09:25:29;;;;;;;5.47;3.33;;;;;;;4.35;78.35;94240.16;4976998;28;20889;-61
2020/12/16 09:27:57;;;;;;;5.78;4.20;;;;;;;4.38;78.97;94233.72;4972198;28;20034;-61
2020/12/16 09:30:29;;;;;;;5.75;3.83;;;;;;;4.44;78.43;94229.75;4978613;28;20877;-62
2020/12/16 09:32:55;;;;;;;5.57;3.75;;;;;;;4.46;78.06;94237.50;4975594;28;20723;-61
2020/12/16 09:35:23;;;;;;;4.90;3.58;;;;;;;4.48;77.90;94232.28;4968131;28;20229;-61
2020/12/16 09:37:48;;;;;;;6.53;3.65;;;;;;;4.29;78.30;94239.38;4967603;28;20105;-62
2020/12/16 09:40:15;;;;;;;5.70;3.35;;;;;;;4.33;78.73;94231.72;4967207;28;20037;-61
2020/12/16 09:42:53;;;;;;;5.38;3.47;;;;;;;4.32;79.02;94225.50;4962663;28;20856;-61
2020/12/16 09:45:21;;;;;;;6.18;4.20;;;;;;;4.28;79.82;94224.97;4969381;28;20022;-61
2020/12/16 09:47:53;;;;;;;10.10;5.53;;;;;;;4.47;78.26;94217.09;4969204;28;20030;-61
2020/12/16 09:50:29;;;;;;;19.67;10.25;;;;;;;4.46;78.50;94221.09;4972121;28;20145;-62
2020/12/16 09:53:00;;;;;;;15.77;8.65;;;;;;;4.49;78.17;94212.66;4972389;28;20105;-62
2020/12/16 09:55:27;;;;;;;8.73;4.78;;;;;;;4.61;78.37;94219.66;4976483;28;20410;-61
2020/12/16 09:58:03;;;;;;;7.03;4.10;;;;;;;4.51;77.92;94210.16;4966194;28;20747;-62
2020/12/16 10:00:29;;;;;;;14.73;6.97;;;;;;;4.62;78.22;94209.47;4971993;28;20043;-62
2020/12/16 10:03:02;;;;;;;12.15;7.28;;;;;;;4.61;78.77;94218.91;4971740;28;20489;-61
2020/12/16 10:05:28;;;;;;;9.95;5.28;;;;;;;4.58;78.23;94206.22;4978446;28;20038;-61
2020/12/16 10:07:54;;;;;;;14.27;7.72;;;;;;;4.74;78.25;94215.72;4963828;28;20069;-61
2020/12/16 10:10:20;;;;;;;8.00;4.95;;;;;;;4.86;77.37;94200.84;4965633;28;20122;-61
2020/12/16 10:12:46;;;;;;;28.92;22.52;;;;;;;4.96;76.84;94194.63;4961499;28;20035;-61
2020/12/16 10:15:11;;;;;;;19.83;14.05;;;;;;;4.82;77.75;94192.13;4964573;28;20026;-61
2020/12/16 10:17:37;;;;;;;12.23;6.50;;;;;;;4.64;78.15;94193.31;4965747;28;20038;-62
2020/12/16 10:20:04;;;;;;;10.35;6.90;;;;;;;4.71;78.54;94189.34;4966694;28;20058;-62
2020/12/16 10:22:30;;;;;;;11.65;6.40;;;;;;;4.73;79.16;94187.63;4975354;28;20030;-61
2020/12/16 10:24:56;;;;;;;10.98;6.72;;;;;;;4.73;78.88;94192.34;4965598;28;20034;-62
2020/12/16 10:27:21;;;;;;;9.48;5.95;;;;;;;4.59;78.58;94186.56;4967505;28;20567;-62
2020/12/16 10:29:47;;;;;;;11.25;5.60;;;;;;;4.58;78.82;94176.13;4963080;28;20043;-62
2020/12/16 10:32:12;;;;;;;13.10;6.13;;;;;;;4.62;78.93;94176.63;4961505;28;20037;-62
2020/12/16 10:34:38;;;;;;;10.07;5.72;;;;;;;4.69;78.67;94169.94;4963826;28;20062;-62
2020/12/16 10:37:03;;;;;;;9.85;6.65;;;;;;;4.60;79.15;94181.84;4966322;28;20034;-62
2020/12/16 10:39:29;;;;;;;9.35;5.07;;;;;;;4.55;79.54;94177.88;4977566;28;20042;-62
2020/12/16 10:41:59;;;;;;;10.93;6.43;;;;;;;4.61;79.50;94164.94;4967846;28;20029;-62
2020/12/16 10:44:26;;;;;;;9.63;5.82;;;;;;;4.68;79.95;94165.72;4963498;28;20037;-62
2020/12/16 10:46:54;;;;;;;9.85;6.13;;;;;;;4.86;79.45;94162.53;4963539;28;20640;-62
2020/12/16 10:49:24;;;;;;;11.55;6.03;;;;;;;4.49;78.71;94125.16;4963197;28;20117;-61
2020/12/16 10:51:50;;;;;;;10.02;6.30;;;;;;;4.93;78.50;94156.56;4962348;28;20049;-62
2020/12/16 10:54:15;;;;;;;13.35;7.43;;;;;;;4.85;78.00;94161.78;4968047;28;20042;-61
2020/12/16 10:56:41;;;;;;;11.15;6.53;;;;;;;4.78;78.66;94154.06;4963256;28;20105;-61
2020/12/16 10:59:06;;;;;;;11.15;7.10;;;;;;;4.86;78.76;94151.59;4963698;28;20110;-61
2020/12/16 11:01:36;;;;;;;10.48;5.80;;;;;;;4.91;79.14;94150.84;4983516;28;20058;-62
2020/12/16 11:04:08;;;;;;;9.65;5.40;;;;;;;4.80;78.69;94148.09;4973291;28;20030;-62
2020/12/16 11:06:38;;;;;;;11.27;6.35;;;;;;;4.84;79.19;94138.41;4960619;28;20117;-62
2020/12/16 11:09:04;;;;;;;9.93;6.43;;;;;;;4.93;79.12;94145.63;4969877;28;20054;-62
2020/12/16 11:11:31;;;;;;;10.00;6.30;;;;;;;5.00;78.65;94142.41;4968316;28;20050;-62
2020/12/16 11:13:57;;;;;;;6.35;4.53;;;;;;;4.82;78.71;94140.13;4976246;28;20030;-61
2020/12/16 11:16:31;;;;;;;7.80;5.70;;;;;;;5.11;78.63;94148.63;4966646;28;20022;-62
2020/12/16 11:18:58;;;;;;;9.32;5.32;;;;;;;5.24;77.46;94148.88;4964997;28;21435;-61
2020/12/16 11:21:23;;;;;;;9.02;5.47;;;;;;;5.37;77.73;94142.94;4961930;28;20050;-62
2020/12/16 11:23:49;;;;;;;9.63;5.32;;;;;;;5.31;76.96;94136.69;4980325;28;20069;-61
2020/12/16 11:26:14;;;;;;;10.20;6.22;;;;;;;5.43;76.86;94138.22;4966503;28;20030;-61
2020/12/16 11:28:40;;;;;;;7.55;4.90;;;;;;;5.44;76.26;94128.72;4962214;28;20066;-63
2020/12/16 11:31:05;;;;;;;13.98;6.05;;;;;;;5.49;76.67;94143.66;4974280;28;20038;-62
2020/12/16 11:33:30;;;;;;;7.65;5.45;;;;;;;5.48;76.87;94145.66;4976612;28;20034;-62
2020/12/16 11:35:56;;;;;;;11.23;6.15;;;;;;;5.28;77.32;94148.66;4971601;28;20038;-62